createdAt,value
2018-10-02T00:00:13.633Z,16.13
2018-10-02T00:02:43.934Z,17.10
2018-10-02T00:05:14.008Z,17.07
2018-10-02T00:07:45.553Z,17.10
2018-10-02T00:10:15.094Z,17.63
2018-10-02T00:12:54.323Z,18.40
2018-10-02T00:15:29.897Z,15.97
2018-10-02T00:18:02.805Z,17.07
2018-10-02T00:20:34.555Z,15.07
2018-10-02T00:23:03.878Z,16.43
2018-10-02T00:25:33.321Z,14.17
2018-10-02T00:28:04.371Z,13.53
2018-10-02T00:30:47.049Z,12.90
2018-10-02T00:33:18.540Z,13.20
2018-10-02T00:35:49.987Z,12.70
2018-10-02T00:38:26.609Z,12.50
2018-10-02T00:40:59.381Z,12.47
2018-10-02T00:43:28.937Z,13.60
2018-10-02T00:46:04.903Z,11.47
2018-10-02T00:48:34.335Z,12.07
2018-10-02T00:53:41.362Z,11.60
2018-10-02T00:56:11.102Z,11.40
2018-10-02T00:58:52.145Z,12.07
2018-10-02T01:01:22.336Z,12.27
2018-10-02T01:03:55.467Z,11.83
2018-10-02T01:06:25.397Z,12.20
2018-10-02T01:08:57.121Z,12.30
2018-10-02T01:11:28.733Z,11.60
2018-10-02T01:14:03.582Z,10.50
2018-10-02T01:16:33.326Z,11.77
2018-10-02T01:19:05.892Z,10.90
2018-10-02T01:21:35.958Z,10.77
2018-10-02T01:24:06.370Z,9.77
2018-10-02T01:26:39.710Z,10.00
2018-10-02T01:29:11.365Z,9.73
2018-10-02T01:31:42.979Z,9.47
2018-10-02T01:34:12.790Z,8.93
2018-10-02T01:36:46.807Z,8.87
2018-10-02T01:39:20.573Z,9.03
2018-10-02T01:42:01.702Z,9.37
2018-10-02T01:44:32.677Z,8.43
2018-10-02T01:47:02.625Z,8.07
2018-10-02T01:49:38.763Z,7.57
2018-10-02T01:52:08.607Z,7.23
2018-10-02T01:54:40.938Z,6.97
2018-10-02T01:57:15.213Z,7.17
2018-10-02T01:59:46.254Z,7.07
2018-10-02T02:02:16.041Z,7.00
2018-10-02T02:04:46.318Z,6.43
2018-10-02T02:07:15.446Z,6.53
2018-10-02T02:09:44.578Z,6.30
2018-10-02T02:12:14.384Z,6.07
2018-10-02T02:14:45.390Z,6.37
2018-10-02T02:17:14.477Z,6.83
2018-10-02T02:19:44.815Z,5.73
2018-10-02T02:22:15.182Z,6.50
2018-10-02T02:24:45.106Z,6.57
2018-10-02T02:27:14.298Z,6.10
2018-10-02T02:29:43.423Z,6.07
2018-10-02T02:32:13.134Z,5.97
2018-10-02T02:34:43.268Z,6.30
2018-10-02T02:37:12.584Z,6.40
2018-10-02T02:39:45.162Z,6.33
2018-10-02T02:42:15.151Z,6.67
2018-10-02T02:44:45.198Z,6.80
2018-10-02T02:47:19.406Z,6.63
2018-10-02T02:49:53.711Z,6.47
2018-10-02T02:52:24.234Z,7.13
2018-10-02T02:54:53.406Z,7.03
2018-10-02T02:57:23.367Z,6.63
2018-10-02T02:59:52.543Z,6.90
2018-10-02T03:02:21.705Z,6.83
2018-10-02T03:04:50.922Z,6.00
2018-10-02T03:07:20.256Z,6.60
2018-10-02T03:09:49.427Z,6.17
2018-10-02T03:12:19.341Z,7.07
2018-10-02T03:14:50.542Z,6.37
2018-10-02T03:17:20.324Z,6.23
2018-10-02T03:19:49.933Z,6.27
2018-10-02T03:22:18.953Z,6.37
2018-10-02T03:24:48.050Z,6.30
2018-10-02T03:27:17.258Z,6.50
2018-10-02T03:29:46.306Z,6.27
2018-10-02T03:32:15.564Z,6.10
2018-10-02T03:34:45.789Z,6.30
2018-10-02T03:37:14.850Z,6.80
2018-10-02T03:39:44.887Z,6.03
2018-10-02T03:42:15.129Z,5.50
2018-10-02T03:44:44.294Z,6.37
2018-10-02T03:47:13.526Z,5.37
2018-10-02T03:49:44.034Z,6.10
2018-10-02T03:52:16.520Z,5.83
2018-10-02T03:54:45.693Z,5.53
2018-10-02T03:57:14.910Z,5.37
2018-10-02T03:59:45.262Z,5.47
2018-10-02T04:02:14.305Z,5.33
2018-10-02T04:04:43.794Z,5.57
2018-10-02T04:07:12.869Z,5.33
2018-10-02T04:09:41.947Z,5.13
2018-10-02T04:12:11.750Z,5.90
2018-10-02T04:14:40.858Z,5.93
2018-10-02T04:17:10.420Z,5.23
2018-10-02T04:19:41.359Z,6.37
2018-10-02T04:22:12.210Z,5.87
2018-10-02T04:24:41.315Z,6.13
2018-10-02T04:27:10.914Z,6.30
2018-10-02T04:29:40.263Z,6.03
2018-10-02T04:32:09.305Z,5.87
2018-10-02T04:34:39.101Z,5.93
2018-10-02T04:37:08.276Z,6.37
2018-10-02T04:39:38.547Z,6.60
2018-10-02T04:42:08.142Z,6.90
2018-10-02T04:44:37.450Z,7.53
2018-10-02T04:47:06.858Z,6.83
2018-10-02T04:49:36.942Z,6.70
2018-10-02T04:52:06.043Z,7.03
2018-10-02T04:54:35.142Z,6.67
2018-10-02T04:57:04.272Z,7.03
2018-10-02T04:59:33.435Z,6.97
2018-10-02T05:02:02.586Z,7.33
2018-10-02T05:04:31.650Z,6.97
2018-10-02T05:07:00.847Z,7.30
2018-10-02T05:09:30.218Z,7.10
2018-10-02T05:11:59.379Z,6.57
2018-10-02T05:14:28.690Z,7.50
2018-10-02T05:16:58.086Z,6.53
2018-10-02T05:19:27.209Z,6.03
2018-10-02T05:21:56.417Z,7.60
2018-10-02T05:24:25.510Z,6.13
2018-10-02T05:26:54.664Z,5.87
2018-10-02T05:29:23.862Z,6.70
2018-10-02T05:31:53.181Z,6.30
2018-10-02T05:34:22.376Z,5.60
2018-10-02T05:36:51.478Z,5.43
2018-10-02T05:39:20.677Z,6.13
2018-10-02T05:41:49.847Z,5.30
2018-10-02T05:44:19.030Z,5.07
2018-10-02T05:46:48.142Z,5.67
2018-10-02T05:49:17.205Z,5.93
2018-10-02T05:51:46.519Z,5.70
2018-10-02T05:54:15.797Z,5.20
2018-10-02T05:56:45.141Z,5.50
2018-10-02T05:59:14.361Z,5.40
2018-10-02T06:01:43.693Z,6.27
2018-10-02T06:04:12.948Z,5.33
2018-10-02T06:06:42.179Z,6.17
2018-10-02T06:09:12.780Z,5.33
2018-10-02T06:11:41.914Z,6.53
2018-10-02T06:14:11.417Z,6.47
2018-10-02T06:16:40.941Z,6.47
2018-10-02T06:19:10.055Z,6.00
2018-10-02T06:21:39.472Z,5.43
2018-10-02T06:24:08.902Z,5.33
2018-10-02T06:26:38.113Z,5.70
2018-10-02T06:29:07.391Z,5.73
2018-10-02T06:31:37.225Z,6.07
2018-10-02T06:34:06.420Z,5.90
2018-10-02T06:36:35.612Z,5.73
2018-10-02T06:39:05.706Z,10.20
2018-10-02T06:41:35.013Z,5.97
2018-10-02T06:44:04.258Z,6.30
2018-10-02T06:46:34.031Z,7.67
2018-10-02T06:49:03.623Z,7.23
2018-10-02T06:51:32.757Z,6.20
2018-10-02T06:54:01.973Z,6.00
2018-10-02T06:56:32.199Z,6.43
2018-10-02T06:59:02.218Z,5.43
2018-10-02T07:01:32.872Z,5.40
2018-10-02T07:04:02.095Z,5.13
2018-10-02T07:06:31.898Z,5.77
2018-10-02T07:09:02.116Z,5.40
2018-10-02T07:11:32.352Z,5.03
2018-10-02T07:14:01.413Z,4.80
2018-10-02T07:16:30.574Z,5.03
2018-10-02T07:19:00.143Z,6.20
2018-10-02T07:21:29.361Z,5.10
2018-10-02T07:23:58.891Z,5.03
2018-10-02T07:26:28.038Z,5.30
2018-10-02T07:28:57.165Z,4.80
2018-10-02T07:31:26.365Z,4.57
2018-10-02T07:33:55.537Z,5.20
2018-10-02T07:36:24.797Z,4.50
2018-10-02T07:38:53.824Z,5.23
2018-10-02T07:41:23.064Z,4.00
2018-10-02T07:43:52.290Z,4.40
2018-10-02T07:46:21.540Z,4.43
2018-10-02T07:48:50.587Z,4.13
2018-10-02T07:51:19.845Z,4.80
2018-10-02T07:53:49.003Z,4.77
2018-10-02T07:56:18.189Z,4.50
2018-10-02T07:58:47.381Z,4.67
2018-10-02T08:01:16.539Z,4.47
2018-10-02T08:03:45.783Z,4.23
2018-10-02T08:06:14.934Z,5.17
2018-10-02T08:08:44.097Z,4.17
2018-10-02T08:11:13.229Z,4.50
2018-10-02T08:13:42.607Z,4.67
2018-10-02T08:16:11.827Z,4.50
2018-10-02T08:18:41.054Z,4.73
2018-10-02T08:21:10.147Z,4.60
2018-10-02T08:23:39.374Z,4.57
2018-10-02T08:26:08.618Z,5.20
2018-10-02T08:28:37.887Z,5.17
2018-10-02T08:31:07.159Z,4.67
2018-10-02T08:33:36.318Z,4.87
2018-10-02T08:36:05.589Z,4.60
2018-10-02T08:38:34.942Z,3.17
2018-10-02T08:41:04.257Z,2.77
2018-10-02T08:43:33.645Z,3.03
2018-10-02T08:46:02.654Z,2.90
2018-10-02T08:48:31.708Z,2.30
2018-10-02T08:51:01.042Z,2.20
2018-10-02T08:53:30.152Z,1.57
2018-10-02T08:55:59.305Z,2.00
2018-10-02T08:58:28.541Z,1.73
2018-10-02T09:00:57.823Z,2.23
2018-10-02T09:03:26.980Z,2.30
2018-10-02T09:05:56.093Z,2.10
2018-10-02T09:08:25.321Z,2.00
2018-10-02T09:10:54.513Z,2.10
2018-10-02T09:13:23.694Z,2.30
2018-10-02T09:15:52.894Z,2.03
2018-10-02T09:18:23.026Z,2.30
2018-10-02T09:20:52.360Z,2.27
2018-10-02T09:23:21.423Z,2.70
2018-10-02T09:25:50.694Z,2.30
2018-10-02T09:28:19.900Z,2.30
2018-10-02T09:30:55.822Z,2.10
2018-10-02T09:33:30.083Z,2.27
2018-10-02T09:36:04.429Z,2.27
2018-10-02T09:38:40.390Z,3.57
2018-10-02T09:41:15.567Z,2.10
2018-10-02T09:43:48.942Z,2.17
2018-10-02T09:46:18.037Z,2.10
2018-10-02T09:48:47.340Z,2.30
2018-10-02T09:51:16.686Z,2.07
2018-10-02T09:53:45.871Z,2.37
2018-10-02T09:56:15.098Z,1.50
2018-10-02T09:58:45.192Z,1.47
2018-10-02T10:01:19.502Z,1.40
2018-10-02T10:03:48.762Z,1.60
2018-10-02T10:06:17.914Z,1.30
2018-10-02T10:08:47.138Z,1.50
2018-10-02T10:11:16.306Z,1.80
2018-10-02T10:13:45.455Z,1.50
2018-10-02T10:16:15.610Z,1.50
2018-10-02T10:18:44.758Z,1.50
2018-10-02T10:21:14.504Z,1.70
2018-10-02T10:23:43.766Z,1.70
2018-10-02T10:26:13.162Z,1.60
2018-10-02T10:28:42.360Z,1.90
2018-10-02T10:31:11.446Z,1.87
2018-10-02T10:33:40.827Z,2.00
2018-10-02T10:36:10.917Z,1.50
2018-10-02T10:38:40.143Z,2.10
2018-10-02T10:41:10.086Z,1.83
2018-10-02T10:43:39.362Z,2.27
2018-10-02T10:46:08.945Z,1.50
2018-10-02T10:48:38.281Z,2.03
2018-10-02T10:51:07.398Z,1.43
2018-10-02T10:53:36.553Z,1.80
2018-10-02T10:56:05.682Z,1.57
2018-10-02T10:58:34.830Z,1.80
2018-10-02T11:01:04.118Z,2.00
2018-10-02T11:03:33.159Z,1.60
2018-10-02T11:06:02.285Z,1.50
2018-10-02T11:08:31.553Z,1.60
2018-10-02T11:11:00.663Z,1.45
2018-10-02T11:13:29.705Z,1.40
2018-10-02T11:15:58.818Z,1.40
2018-10-02T11:18:28.026Z,1.70
2018-10-02T11:20:57.278Z,1.50
2018-10-02T11:23:26.506Z,1.60
2018-10-02T11:25:55.742Z,1.50
2018-10-02T11:28:24.799Z,1.40
2018-10-02T11:30:53.926Z,1.50
2018-10-02T11:33:23.113Z,1.40
2018-10-02T11:35:52.635Z,1.53
2018-10-02T11:38:21.645Z,1.30
2018-10-02T11:40:50.787Z,1.40
2018-10-02T11:43:19.889Z,1.50
2018-10-02T11:45:48.919Z,1.57
2018-10-02T11:48:18.291Z,1.20
2018-10-02T11:50:47.527Z,1.50
2018-10-02T11:53:16.591Z,1.60
2018-10-02T11:55:45.786Z,1.25
2018-10-02T11:58:15.006Z,1.37
2018-10-02T12:00:44.408Z,1.57
2018-10-02T12:03:13.643Z,1.30
2018-10-02T12:05:43.040Z,1.60
2018-10-02T12:08:13.314Z,1.50
2018-10-02T12:10:42.434Z,1.57
2018-10-02T12:13:11.526Z,1.70
2018-10-02T12:15:40.599Z,1.80
2018-10-02T12:18:10.414Z,1.90
2018-10-02T12:20:39.474Z,2.03
2018-10-02T12:23:08.651Z,1.65
2018-10-02T12:25:39.139Z,1.63
2018-10-02T12:28:08.938Z,1.90
2018-10-02T12:30:38.065Z,1.63
2018-10-02T12:33:07.229Z,1.63
2018-10-02T12:35:36.426Z,1.70
2018-10-02T12:38:05.658Z,2.40
2018-10-02T12:40:34.814Z,2.27
2018-10-02T12:43:04.010Z,2.00
2018-10-02T12:45:33.187Z,2.17
2018-10-02T12:48:02.265Z,2.00
2018-10-02T12:50:31.526Z,2.10
2018-10-02T12:53:00.829Z,2.20
2018-10-02T12:55:29.975Z,2.10
2018-10-02T12:57:59.162Z,2.30
2018-10-02T13:00:28.314Z,2.23
2018-10-02T13:02:57.506Z,2.83
2018-10-02T13:05:26.701Z,2.47
2018-10-02T13:07:55.930Z,2.40
2018-10-02T13:10:25.118Z,2.17
2018-10-02T13:12:54.330Z,2.97
2018-10-02T13:15:23.381Z,2.67
2018-10-02T13:17:52.705Z,2.63
2018-10-02T13:20:21.939Z,2.63
2018-10-02T13:22:51.202Z,3.00
2018-10-02T13:25:20.378Z,2.63
2018-10-02T13:27:49.688Z,2.70
2018-10-02T13:30:18.845Z,2.60
2018-10-02T13:32:48.030Z,2.50
2018-10-02T13:35:17.227Z,2.50
2018-10-02T13:37:46.973Z,2.60
2018-10-02T13:40:18.328Z,2.63
2018-10-02T13:42:47.510Z,2.60
2018-10-02T13:45:16.649Z,2.30
2018-10-02T13:47:45.811Z,2.47
2018-10-02T13:50:15.151Z,2.53
2018-10-02T13:52:44.549Z,2.83
2018-10-02T13:55:13.725Z,2.33
2018-10-02T13:57:43.753Z,1.97
2018-10-02T14:00:13.717Z,2.43
2018-10-02T14:02:42.895Z,2.60
2018-10-02T14:05:12.048Z,2.60
2018-10-02T14:07:41.605Z,2.77
2018-10-02T14:10:10.787Z,2.60
2018-10-02T14:12:40.035Z,2.60
2018-10-02T14:15:09.158Z,2.50
2018-10-02T14:17:38.350Z,2.70
2018-10-02T14:20:07.648Z,3.00
2018-10-02T14:22:36.887Z,2.50
2018-10-02T14:25:06.602Z,3.23
2018-10-02T14:27:35.685Z,3.13
2018-10-02T14:30:05.345Z,3.17
2018-10-02T14:32:34.543Z,3.17
2018-10-02T14:35:05.046Z,3.03
2018-10-02T14:37:34.207Z,3.03
2018-10-02T14:40:03.776Z,3.20
2018-10-02T14:42:33.019Z,3.20
2018-10-02T14:45:02.830Z,3.13
2018-10-02T14:47:32.143Z,2.70
2018-10-02T14:50:01.236Z,3.43
2018-10-02T14:52:30.411Z,3.27
2018-10-02T14:54:59.702Z,3.20
2018-10-02T14:57:29.021Z,3.20
2018-10-02T14:59:58.926Z,2.73
2018-10-02T15:02:28.163Z,3.00
2018-10-02T15:04:57.205Z,2.77
2018-10-02T15:07:27.229Z,2.83
2018-10-02T15:09:56.346Z,3.73
2018-10-02T15:12:25.398Z,2.97
2018-10-02T15:14:55.458Z,3.63
2018-10-02T15:17:24.561Z,3.50
2018-10-02T15:19:53.673Z,3.50
2018-10-02T15:22:23.819Z,3.40
2018-10-02T15:24:53.133Z,3.13
2018-10-02T15:27:22.486Z,3.60
2018-10-02T15:29:53.398Z,3.40
2018-10-02T15:32:22.562Z,3.90
2018-10-02T15:34:52.166Z,3.37
2018-10-02T15:37:21.350Z,4.13
2018-10-02T15:39:50.595Z,3.37
2018-10-02T15:42:21.405Z,3.40
2018-10-02T15:44:50.495Z,3.03
2018-10-02T15:47:19.470Z,3.43
2018-10-02T15:49:48.601Z,3.53
2018-10-02T15:52:17.602Z,3.70
2018-10-02T15:54:46.766Z,4.10
2018-10-02T15:57:15.926Z,3.73
2018-10-02T15:59:45.190Z,3.57
2018-10-02T16:02:14.333Z,3.67
2018-10-02T16:04:43.564Z,4.00
2018-10-02T16:07:12.782Z,3.77
2018-10-02T16:09:42.060Z,3.47
2018-10-02T16:12:11.283Z,3.53
2018-10-02T16:14:40.814Z,3.40
2018-10-02T16:17:10.046Z,3.67
2018-10-02T16:19:39.181Z,3.60
2018-10-02T16:22:08.311Z,4.10
2018-10-02T16:24:38.317Z,3.90
2018-10-02T16:27:07.596Z,4.10
2018-10-02T16:29:36.669Z,3.57
2018-10-02T16:32:05.807Z,3.40
2018-10-02T16:34:35.445Z,3.50
2018-10-02T16:37:05.182Z,3.87
2018-10-02T16:39:34.663Z,3.90
2018-10-02T16:42:03.858Z,3.57
2018-10-02T16:44:33.862Z,4.40
2018-10-02T16:47:05.043Z,3.37
2018-10-02T16:49:34.178Z,4.10
2018-10-02T16:52:03.451Z,3.60
2018-10-02T16:54:32.815Z,4.30
2018-10-02T16:57:01.891Z,4.00
2018-10-02T16:59:31.151Z,3.83
2018-10-02T17:02:00.305Z,4.40
2018-10-02T17:04:30.093Z,4.40
2018-10-02T17:06:59.286Z,4.10
2018-10-02T17:09:29.054Z,4.40
2018-10-02T17:11:59.061Z,4.13
2018-10-02T17:14:28.205Z,3.83
2018-10-02T17:16:58.238Z,3.83
2018-10-02T17:19:27.439Z,3.80
2018-10-02T17:21:56.631Z,5.47
2018-10-02T17:24:25.902Z,5.70
2018-10-02T17:26:55.006Z,6.97
2018-10-02T17:29:25.706Z,7.50
2018-10-02T17:31:55.765Z,5.03
2018-10-02T17:34:25.718Z,4.13
2018-10-02T17:36:54.873Z,4.30
2018-10-02T17:39:24.114Z,4.70
2018-10-02T17:41:53.172Z,4.03
2018-10-02T17:44:24.217Z,4.33
2018-10-02T17:46:53.430Z,3.53
2018-10-02T17:49:23.439Z,7.20
2018-10-02T17:51:53.954Z,7.17
2018-10-02T17:54:23.814Z,4.90
2018-10-02T17:56:53.999Z,4.63
2018-10-02T17:59:23.295Z,5.03
2018-10-02T18:01:52.545Z,5.27
2018-10-02T18:04:22.594Z,5.03
2018-10-02T18:06:55.468Z,5.53
2018-10-02T18:09:26.472Z,5.17
2018-10-02T18:11:56.176Z,6.40
2018-10-02T18:14:25.407Z,5.43
2018-10-02T18:16:54.774Z,7.07
2018-10-02T18:19:24.034Z,5.87
2018-10-02T18:21:53.757Z,5.40
2018-10-02T18:24:23.413Z,6.20
2018-10-02T18:26:52.590Z,6.03
2018-10-02T18:29:24.382Z,4.93
2018-10-02T18:31:54.185Z,5.03
2018-10-02T18:34:26.958Z,4.97
2018-10-02T18:36:56.219Z,5.13
2018-10-02T18:39:26.485Z,4.90
2018-10-02T18:41:55.749Z,4.90
2018-10-02T18:44:25.506Z,4.23
2018-10-02T18:46:55.142Z,5.87
2018-10-02T18:49:25.170Z,5.83
2018-10-02T18:51:54.725Z,6.13
2018-10-02T18:54:25.903Z,5.37
2018-10-02T18:56:55.228Z,6.57
2018-10-02T18:59:25.358Z,5.63
2018-10-02T19:01:55.058Z,4.90
2018-10-02T19:04:25.070Z,5.73
2018-10-02T19:06:54.563Z,5.50
2018-10-02T19:09:23.581Z,5.77
2018-10-02T19:11:58.707Z,5.87
2018-10-02T19:14:27.781Z,5.60
2018-10-02T19:16:56.979Z,4.60
2018-10-02T19:19:31.337Z,4.03
2018-10-02T19:22:00.548Z,3.80
2018-10-02T19:24:30.458Z,4.30
2018-10-02T19:27:00.045Z,4.63
2018-10-02T19:29:29.209Z,4.47
2018-10-02T19:32:01.803Z,4.67
2018-10-02T19:34:31.732Z,4.30
2018-10-02T19:37:02.005Z,4.10
2018-10-02T19:39:33.091Z,3.70
2018-10-02T19:42:02.542Z,4.10
2018-10-02T19:44:32.119Z,4.03
2018-10-02T19:47:02.942Z,5.13
2018-10-02T19:52:17.958Z,5.13
2018-10-02T19:54:48.281Z,4.50
2018-10-02T19:57:19.326Z,5.63
2018-10-02T19:59:51.095Z,5.20
2018-10-02T20:02:21.182Z,5.47
2018-10-02T20:04:50.373Z,5.07
2018-10-02T20:07:20.210Z,4.90
2018-10-02T20:09:49.306Z,4.50
2018-10-02T20:12:18.487Z,5.13
2018-10-02T20:14:47.601Z,4.60
2018-10-02T20:17:16.734Z,4.63
2018-10-02T20:19:46.256Z,4.30
2018-10-02T20:22:15.913Z,4.57
2018-10-02T20:24:45.186Z,4.60
2018-10-02T20:27:15.782Z,4.37
2018-10-02T20:29:45.559Z,5.70
2018-10-02T20:32:15.022Z,4.57
2018-10-02T20:34:44.234Z,4.50
2018-10-02T20:37:13.266Z,4.63
2018-10-02T20:39:43.278Z,4.13
2018-10-02T20:42:14.512Z,3.60
2018-10-02T20:44:43.646Z,3.73
2018-10-02T20:47:14.921Z,4.00
2018-10-02T20:49:44.117Z,4.80
2018-10-02T20:52:14.863Z,4.17
2018-10-02T20:54:44.203Z,3.93
2018-10-02T20:57:15.020Z,3.80
2018-10-02T20:59:44.091Z,3.43
2018-10-02T21:02:13.930Z,3.80
2018-10-02T21:04:43.077Z,3.47
2018-10-02T21:07:12.332Z,3.90
2018-10-02T21:09:41.440Z,4.10
2018-10-02T21:12:10.790Z,3.40
2018-10-02T21:14:40.081Z,3.60
2018-10-02T21:17:09.174Z,3.60
2018-10-02T21:19:38.845Z,3.77
2018-10-02T21:22:08.897Z,3.30
2018-10-02T21:24:38.035Z,3.10
2018-10-02T21:27:08.165Z,3.30
2018-10-02T21:29:37.300Z,3.20
2018-10-02T21:32:06.533Z,3.50
2018-10-02T21:34:35.701Z,2.80
2018-10-02T21:37:04.861Z,2.63
2018-10-02T21:39:34.039Z,3.10
2018-10-02T21:42:03.306Z,3.00
2018-10-02T21:44:32.532Z,3.07
2018-10-02T21:47:01.525Z,2.67
2018-10-02T21:49:30.865Z,2.60
2018-10-02T21:52:00.767Z,3.10
2018-10-02T21:54:30.023Z,2.40
2018-10-02T21:57:00.880Z,2.80
2018-10-02T21:59:34.992Z,2.70
2018-10-02T22:02:04.193Z,2.70
2018-10-02T22:04:34.313Z,2.50
2018-10-02T22:07:03.565Z,2.57
2018-10-02T22:09:34.475Z,2.57
2018-10-02T22:12:03.782Z,2.03
2018-10-02T22:14:33.893Z,2.30
2018-10-02T22:17:03.339Z,2.50
2018-10-02T22:19:34.269Z,2.30
2018-10-02T22:22:03.946Z,2.10
2018-10-02T22:24:33.117Z,2.30
2018-10-02T22:27:02.329Z,2.27
2018-10-02T22:29:31.779Z,2.40
2018-10-02T22:32:00.912Z,2.00
2018-10-02T22:34:30.046Z,2.40
2018-10-02T22:36:59.667Z,2.07
2018-10-02T22:39:28.817Z,2.00
2018-10-02T22:41:58.002Z,2.33
2018-10-02T22:44:27.112Z,2.37
2018-10-02T22:46:56.177Z,2.07
2018-10-02T22:49:25.474Z,2.30
2018-10-02T22:51:55.190Z,2.50
2018-10-02T22:54:24.934Z,2.10
2018-10-02T22:56:54.733Z,2.23
2018-10-02T22:59:24.056Z,2.10
2018-10-02T23:01:53.242Z,2.23
2018-10-02T23:04:22.364Z,2.20
2018-10-02T23:06:52.577Z,2.30
2018-10-02T23:09:21.654Z,2.10
2018-10-02T23:11:50.960Z,2.00
2018-10-02T23:14:20.107Z,2.07
2018-10-02T23:16:50.242Z,2.27
2018-10-02T23:19:19.358Z,2.20
2018-10-02T23:21:48.834Z,2.53
2018-10-02T23:24:18.637Z,2.23
2018-10-02T23:26:47.802Z,2.57
2018-10-02T23:29:16.797Z,2.77
2018-10-02T23:31:45.790Z,2.30
2018-10-02T23:34:16.052Z,2.50
2018-10-02T23:36:45.454Z,3.00
2018-10-02T23:39:14.654Z,2.67
2018-10-02T23:41:43.711Z,2.93
2018-10-02T23:44:13.378Z,3.00
2018-10-02T23:46:42.390Z,3.07
2018-10-02T23:49:11.519Z,2.87
2018-10-02T23:51:40.759Z,3.00
2018-10-02T23:54:09.854Z,3.03
2018-10-02T23:56:39.054Z,2.70
2018-10-02T23:59:09.069Z,2.60
